Time;durP1;ratioP1;P1;durP2;ratioP2;P2;SDS_P1;SDS_P2;PMS_P1;PMS_P2;Temp;Humidity;BMP_temperature;BMP_pressure;BME280_temperature;BME280_humidity;BME280_pressure;Samples;Min_cycle;Max_cycle;Signal;HPM_P1;HPM_P2
2021/06/07 00:01:51;;;;;;;;;;;25.70;93.10;;;;;;5104105;28;19907;-46
2021/06/07 00:04:17;;;;;;;;;;;25.70;93.40;;;;;;5104609;28;19900;-50
2021/06/07 00:06:44;;;;;;;;;;;25.70;93.20;;;;;;5104383;28;19907;-44
2021/06/07 00:09:11;;;;;;;;;;;25.70;93.30;;;;;;5104408;28;19900;-48
2021/06/07 00:11:39;;;;;;;;;;;25.70;93.30;;;;;;5104455;28;19931;-45
2021/06/07 00:14:05;;;;;;;;;;;25.70;93.30;;;;;;5104531;28;19945;-45
2021/06/07 00:16:31;;;;;;;;;;;25.70;93.40;;;;;;5104020;28;19900;-44
2021/06/07 00:18:58;;;;;;;;;;;25.70;93.30;;;;;;5104017;28;19974;-45
2021/06/07 00:21:26;;;;;;;;;;;25.70;93.30;;;;;;5102955;28;19962;-48
2021/06/07 00:23:53;;;;;;;;;;;25.70;93.40;;;;;;5103215;28;20181;-48
2021/06/07 00:26:19;;;;;;;;;;;25.70;93.30;;;;;;5104142;28;19965;-49
2021/06/07 00:28:46;;;;;;;;;;;25.70;93.30;;;;;;5103928;28;19914;-45
2021/06/07 00:31:15;;;;;;;;;;;25.70;93.30;;;;;;5103971;28;19906;-46
2021/06/07 00:33:41;;;;;;;;;;;25.60;93.20;;;;;;5104222;28;19908;-46
2021/06/07 00:36:08;;;;;;;;;;;25.60;93.30;;;;;;5104065;28;19900;-48
2021/06/07 00:38:35;;;;;;;;;;;25.60;93.40;;;;;;5104308;28;20077;-46
2021/06/07 00:41:04;;;;;;;;;;;25.60;93.40;;;;;;5103971;28;20097;-46
2021/06/07 00:43:30;;;;;;;;;;;25.60;93.30;;;;;;5107028;28;19915;-46
2021/06/07 00:45:56;;;;;;;;;;;25.60;93.10;;;;;;5107426;28;19906;-45
2021/06/07 00:48:23;;;;;;;;;;;25.60;93.30;;;;;;5107944;28;20180;-51
2021/06/07 00:50:51;;;;;;;;;;;25.60;93.10;;;;;;5107351;28;19945;-45
2021/06/07 00:53:18;;;;;;;;;;;25.60;93.00;;;;;;5107355;28;19908;-48
2021/06/07 00:55:48;;;;;;;;;;;25.60;93.00;;;;;;5107264;28;20153;-45
2021/06/07 00:58:16;;;;;;;;;;;25.60;93.00;;;;;;5107403;28;19912;-45
2021/06/07 01:00:43;;;;;;;;;;;25.60;93.00;;;;;;5107161;28;19900;-47
2021/06/07 01:03:10;;;;;;;;;;;25.50;93.10;;;;;;5107352;28;19912;-46
2021/06/07 01:05:36;;;;;;;;;;;25.50;93.00;;;;;;5107210;28;19900;-44
2021/06/07 01:08:03;;;;;;;;;;;25.60;93.00;;;;;;5107485;28;19908;-46
2021/06/07 01:10:29;;;;;;;;;;;25.60;93.00;;;;;;5107311;28;19907;-47
2021/06/07 01:12:56;;;;;;;;;;;25.60;92.90;;;;;;5107085;28;19908;-48
2021/06/07 01:15:22;;;;;;;;;;;25.60;92.90;;;;;;5106635;28;19900;-46
2021/06/07 01:17:49;;;;;;;;;;;25.50;92.90;;;;;;5106623;28;19920;-45
2021/06/07 01:20:16;;;;;;;;;;;25.50;92.90;;;;;;5106762;28;19963;-44
2021/06/07 01:22:44;;;;;;;;;;;25.50;92.90;;;;;;5106987;28;19907;-48
2021/06/07 01:25:12;;;;;;;;;;;25.50;92.90;;;;;;5106711;28;19968;-45
2021/06/07 01:27:38;;;;;;;;;;;25.50;92.90;;;;;;5106892;28;19935;-47
2021/06/07 01:30:06;;;;;;;;;;;25.50;92.90;;;;;;5106487;28;19960;-44
2021/06/07 01:32:32;;;;;;;;;;;25.50;92.90;;;;;;5106554;28;19908;-45
2021/06/07 01:34:59;;;;;;;;;;;25.50;92.90;;;;;;5106458;28;19900;-47
2021/06/07 01:37:25;;;;;;;;;;;25.50;92.90;;;;;;5106630;28;19961;-53
2021/06/07 01:39:51;;;;;;;;;;;25.50;92.90;;;;;;5106401;28;19907;-46
2021/06/07 01:42:18;;;;;;;;;;;25.50;92.90;;;;;;5106329;28;19952;-55
2021/06/07 01:44:44;;;;;;;;;;;25.50;92.90;;;;;;5106568;28;20189;-53
2021/06/07 01:47:10;;;;;;;;;;;25.50;93.00;;;;;;5106595;28;19908;-48
2021/06/07 01:49:36;;;;;;;;;;;25.50;93.00;;;;;;5105103;28;19900;-49
2021/06/07 01:52:03;;;;;;;;;;;25.50;92.90;;;;;;5106083;28;19908;-48
2021/06/07 01:54:29;;;;;;;;;;;25.50;92.90;;;;;;5104843;28;19930;-47
2021/06/07 01:56:55;;;;;;;;;;;25.50;92.90;;;;;;5105349;28;19934;-45
2021/06/07 01:59:21;;;;;;;;;;;25.50;92.80;;;;;;5105960;28;19952;-50
2021/06/07 02:01:47;;;;;;;;;;;25.50;92.80;;;;;;5105982;28;20160;-47
2021/06/07 02:04:13;;;;;;;;;;;25.50;92.70;;;;;;5106011;28;19904;-57
2021/06/07 02:06:40;;;;;;;;;;;25.40;92.50;;;;;;5106109;28;19899;-47
2021/06/07 02:09:06;;;;;;;;;;;25.40;92.40;;;;;;5105633;28;19908;-45
2021/06/07 02:11:33;;;;;;;;;;;25.50;92.30;;;;;;5105834;28;19907;-50
2021/06/07 02:14:03;;;;;;;;;;;25.50;92.20;;;;;;5105682;28;19908;-46
2021/06/07 02:16:31;;;;;;;;;;;25.40;92.20;;;;;;5105567;28;19904;-47
2021/06/07 02:18:58;;;;;;;;;;;25.50;92.10;;;;;;5105441;28;19919;-51
2021/06/07 02:21:25;;;;;;;;;;;25.50;92.00;;;;;;5105775;28;19949;-48
2021/06/07 02:23:51;;;;;;;;;;;25.50;91.80;;;;;;5105929;28;20221;-48
2021/06/07 02:26:18;;;;;;;;;;;25.40;91.90;;;;;;5106047;28;20180;-50
2021/06/07 02:28:49;;;;;;;;;;;25.50;91.80;;;;;;5105942;28;19961;-50
2021/06/07 02:31:16;;;;;;;;;;;25.50;91.70;;;;;;5105489;28;19904;-47
2021/06/07 02:33:43;;;;;;;;;;;25.40;91.70;;;;;;5105801;28;19903;-49
2021/06/07 02:36:09;;;;;;;;;;;25.40;91.80;;;;;;5105360;28;19927;-53
2021/06/07 02:38:35;;;;;;;;;;;25.40;91.80;;;;;;5105547;28;19915;-48
2021/06/07 02:41:02;;;;;;;;;;;25.40;91.80;;;;;;5105248;28;20014;-45
2021/06/07 02:43:28;;;;;;;;;;;25.40;91.80;;;;;;5106138;28;20115;-46
2021/06/07 02:45:54;;;;;;;;;;;25.30;91.80;;;;;;5105471;28;19942;-55
2021/06/07 02:48:20;;;;;;;;;;;25.30;92.40;;;;;;5105628;28;19904;-48
2021/06/07 02:50:47;;;;;;;;;;;25.30;92.10;;;;;;5105388;28;19962;-46
2021/06/07 02:53:14;;;;;;;;;;;25.30;92.20;;;;;;5105355;28;19949;-46
2021/06/07 02:55:58;;;;;;;;;;;25.30;92.30;;;;;;5105034;28;20199;-46
2021/06/07 02:58:25;;;;;;;;;;;25.30;92.40;;;;;;5104847;28;19908;-46
2021/06/07 03:00:55;;;;;;;;;;;25.20;92.40;;;;;;5104819;28;19911;-45
2021/06/07 03:03:22;;;;;;;;;;;25.20;92.50;;;;;;5105669;28;19907;-46
2021/06/07 03:05:49;;;;;;;;;;;25.20;92.60;;;;;;5104333;28;20196;-48
2021/06/07 03:08:17;;;;;;;;;;;25.20;92.60;;;;;;5105294;28;19900;-46
2021/06/07 03:10:44;;;;;;;;;;;25.20;92.60;;;;;;5105052;28;20141;-48
2021/06/07 03:13:11;;;;;;;;;;;25.10;92.70;;;;;;5104953;28;19906;-49
2021/06/07 03:15:37;;;;;;;;;;;25.10;92.80;;;;;;5104766;28;19940;-49
2021/06/07 03:18:04;;;;;;;;;;;25.10;92.80;;;;;;5104588;28;20096;-52
2021/06/07 03:20:31;;;;;;;;;;;25.10;92.90;;;;;;5104579;28;20135;-44
2021/06/07 03:23:00;;;;;;;;;;;25.10;92.90;;;;;;5105110;28;20203;-47
2021/06/07 03:25:26;;;;;;;;;;;25.10;92.80;;;;;;5104795;28;19907;-51
2021/06/07 03:27:53;;;;;;;;;;;25.10;92.80;;;;;;5104655;28;19900;-48
2021/06/07 03:30:20;;;;;;;;;;;25.10;92.80;;;;;;5104959;28;19975;-46
2021/06/07 03:32:46;;;;;;;;;;;25.10;92.90;;;;;;5104792;28;20192;-46
2021/06/07 03:35:13;;;;;;;;;;;25.10;93.00;;;;;;5104447;28;19908;-47
2021/06/07 03:37:40;;;;;;;;;;;25.10;92.90;;;;;;5104738;28;19966;-47
2021/06/07 03:40:10;;;;;;;;;;;25.10;93.00;;;;;;5104507;28;19912;-46
2021/06/07 03:42:37;;;;;;;;;;;25.00;93.10;;;;;;5104588;28;20237;-46
2021/06/07 03:45:04;;;;;;;;;;;25.00;93.10;;;;;;5104517;28;19930;-50
2021/06/07 03:47:31;;;;;;;;;;;25.00;93.10;;;;;;5104882;28;19987;-48
2021/06/07 03:49:57;;;;;;;;;;;25.00;93.10;;;;;;5104353;28;19948;-47
2021/06/07 03:52:23;;;;;;;;;;;25.00;93.20;;;;;;5104687;28;19903;-45
2021/06/07 03:54:49;;;;;;;;;;;25.00;93.30;;;;;;5104529;28;19939;-47
2021/06/07 03:57:15;;;;;;;;;;;25.00;93.30;;;;;;5104284;28;20061;-43
2021/06/07 03:59:42;;;;;;;;;;;25.00;93.30;;;;;;5104778;28;19938;-45
2021/06/07 04:02:09;;;;;;;;;;;25.00;93.30;;;;;;5104579;28;19904;-45
2021/06/07 04:04:36;;;;;;;;;;;25.00;93.20;;;;;;5104443;28;19912;-48
2021/06/07 04:07:03;;;;;;;;;;;25.00;93.30;;;;;;5104554;28;19911;-47
2021/06/07 04:09:30;;;;;;;;;;;24.90;93.40;;;;;;5104417;28;19911;-45
2021/06/07 04:11:56;;;;;;;;;;;24.90;93.40;;;;;;5104536;28;19935;-49
2021/06/07 04:14:22;;;;;;;;;;;24.90;93.40;;;;;;5104549;28;19904;-49
2021/06/07 04:16:48;;;;;;;;;;;24.90;93.40;;;;;;5104480;28;19946;-49
2021/06/07 04:19:15;;;;;;;;;;;24.90;93.50;;;;;;5108244;28;19919;-47
2021/06/07 04:21:41;;;;;;;;;;;24.90;93.60;;;;;;5108172;28;19903;-48
2021/06/07 04:24:08;;;;;;;;;;;24.90;93.60;;;;;;5108287;28;19900;-47
2021/06/07 04:26:37;;;;;;;;;;;24.90;93.70;;;;;;5107981;28;20202;-48
2021/06/07 04:29:03;;;;;;;;;;;24.90;93.70;;;;;;5108717;28;19908;-47
2021/06/07 04:31:29;;;;;;;;;;;24.90;93.70;;;;;;5107798;28;19900;-50
2021/06/07 04:33:56;;;;;;;;;;;24.90;93.80;;;;;;5108264;28;19954;-48
2021/06/07 04:36:22;;;;;;;;;;;24.90;93.90;;;;;;5107770;28;19900;-51
2021/06/07 04:38:48;;;;;;;;;;;24.90;93.90;;;;;;5108077;28;19947;-53
2021/06/07 04:41:14;;;;;;;;;;;24.90;94.00;;;;;;5107703;28;19973;-45
2021/06/07 04:43:40;;;;;;;;;;;24.90;94.00;;;;;;5107526;28;20246;-48
2021/06/07 04:46:06;;;;;;;;;;;24.90;94.00;;;;;;5107579;28;19900;-50
2021/06/07 04:48:33;;;;;;;;;;;24.90;94.00;;;;;;5108074;28;19915;-57
2021/06/07 04:50:59;;;;;;;;;;;24.90;94.00;;;;;;5107267;28;19904;-47
2021/06/07 04:53:25;;;;;;;;;;;24.90;94.00;;;;;;5107718;28;19908;-45
2021/06/07 04:55:52;;;;;;;;;;;24.90;94.00;;;;;;5107325;28;19907;-46
2021/06/07 04:58:27;;;;;;;;;;;24.90;94.00;;;;;;5107601;28;20183;-45
2021/06/07 05:00:56;;;;;;;;;;;24.90;94.00;;;;;;5106155;28;19900;-49
2021/06/07 05:03:26;;;;;;;;;;;24.90;94.10;;;;;;5107703;28;20162;-44
2021/06/07 05:05:52;;;;;;;;;;;24.90;94.10;;;;;;5107159;28;19900;-53
2021/06/07 05:08:19;;;;;;;;;;;24.90;94.00;;;;;;5107499;28;19915;-48
2021/06/07 05:10:45;;;;;;;;;;;24.90;93.90;;;;;;5107280;28;19904;-50
2021/06/07 05:13:11;;;;;;;;;;;24.90;93.90;;;;;;5107264;28;19908;-50
2021/06/07 05:15:37;;;;;;;;;;;24.90;93.80;;;;;;5106801;28;19931;-47
2021/06/07 05:18:04;;;;;;;;;;;24.90;93.60;;;;;;5106623;28;19912;-43
2021/06/07 05:20:30;;;;;;;;;;;24.90;93.40;;;;;;5106451;28;20128;-46
2021/06/07 05:22:57;;;;;;;;;;;24.90;93.50;;;;;;5106646;28;20088;-46
2021/06/07 05:25:24;;;;;;;;;;;25.00;93.40;;;;;;5106240;28;19900;-47
2021/06/07 05:27:51;;;;;;;;;;;25.00;93.40;;;;;;5105738;28;19953;-45
2021/06/07 05:30:18;;;;;;;;;;;25.00;93.40;;;;;;5105185;28;20163;-46
2021/06/07 05:32:45;;;;;;;;;;;25.00;93.40;;;;;;5106836;28;19908;-53
2021/06/07 05:35:12;;;;;;;;;;;25.00;93.40;;;;;;5106343;28;19906;-44
2021/06/07 05:37:39;;;;;;;;;;;24.90;93.30;;;;;;5106486;28;19908;-43
2021/06/07 05:40:06;;;;;;;;;;;25.00;93.30;;;;;;5106863;28;20193;-44
2021/06/07 05:42:32;;;;;;;;;;;25.00;93.30;;;;;;5106850;28;19908;-44
2021/06/07 05:44:59;;;;;;;;;;;24.90;93.20;;;;;;5106762;28;19900;-52
2021/06/07 05:47:25;;;;;;;;;;;24.90;93.20;;;;;;5106924;28;19982;-43
2021/06/07 05:49:51;;;;;;;;;;;25.00;93.20;;;;;;5106633;28;19900;-44
2021/06/07 05:52:17;;;;;;;;;;;25.00;93.20;;;;;;5106581;28;19908;-47
2021/06/07 05:54:43;;;;;;;;;;;25.00;93.10;;;;;;5106752;28;19900;-46
2021/06/07 05:57:10;;;;;;;;;;;24.90;93.10;;;;;;5106563;28;19908;-44
2021/06/07 05:59:37;;;;;;;;;;;25.00;93.00;;;;;;5106339;28;19903;-47
2021/06/07 06:02:07;;;;;;;;;;;24.90;92.90;;;;;;5106523;28;20105;-45
2021/06/07 06:04:33;;;;;;;;;;;24.90;92.90;;;;;;5106499;28;19938;-44
2021/06/07 06:07:00;;;;;;;;;;;24.90;93.00;;;;;;5106310;28;19917;-43
2021/06/07 06:09:27;;;;;;;;;;;24.90;92.90;;;;;;5106316;28;19907;-45
2021/06/07 06:11:53;;;;;;;;;;;24.90;92.90;;;;;;5106328;28;19942;-45
2021/06/07 06:14:20;;;;;;;;;;;24.90;92.80;;;;;;5106186;28;19904;-44
2021/06/07 06:16:46;;;;;;;;;;;24.90;92.80;;;;;;5106214;28;20188;-45
2021/06/07 06:19:12;;;;;;;;;;;24.90;92.90;;;;;;5105993;28;19912;-46
2021/06/07 06:21:40;;;;;;;;;;;24.90;92.80;;;;;;5106009;28;20141;-43
2021/06/07 06:24:10;;;;;;;;;;;24.90;92.80;;;;;;5106137;28;19940;-44
2021/06/07 06:26:37;;;;;;;;;;;24.90;92.60;;;;;;5105979;28;19900;-44
2021/06/07 06:29:04;;;;;;;;;;;24.90;92.40;;;;;;5106348;28;19908;-52
2021/06/07 06:31:30;;;;;;;;;;;24.90;92.40;;;;;;5106218;28;19900;-51
2021/06/07 06:33:56;;;;;;;;;;;24.90;92.20;;;;;;5106374;28;20249;-51
2021/06/07 06:36:22;;;;;;;;;;;24.90;92.10;;;;;;5105715;28;19900;-45
2021/06/07 06:38:49;;;;;;;;;;;24.90;91.90;;;;;;5106235;28;19912;-47
2021/06/07 06:41:15;;;;;;;;;;;25.00;92.00;;;;;;5104948;28;19907;-43
2021/06/07 06:43:41;;;;;;;;;;;25.00;91.90;;;;;;5106002;28;19947;-51
2021/06/07 06:46:08;;;;;;;;;;;24.90;91.90;;;;;;5105692;28;20220;-51
2021/06/07 06:48:34;;;;;;;;;;;25.00;91.80;;;;;;5106102;28;19948;-52
2021/06/07 06:51:01;;;;;;;;;;;24.90;91.80;;;;;;5105441;28;19900;-46
2021/06/07 06:53:28;;;;;;;;;;;24.90;91.70;;;;;;5104594;28;20219;-43
2021/06/07 06:55:54;;;;;;;;;;;24.90;91.90;;;;;;5105529;28;20119;-43
2021/06/07 06:58:20;;;;;;;;;;;24.90;92.00;;;;;;5105602;28;19912;-46
2021/06/07 07:00:46;;;;;;;;;;;24.90;92.20;;;;;;5105461;28;20093;-46
2021/06/07 07:03:20;;;;;;;;;;;24.90;92.30;;;;;;5105668;28;19912;-53
2021/06/07 07:05:47;;;;;;;;;;;24.90;92.40;;;;;;5105220;28;20100;-43
2021/06/07 07:08:14;;;;;;;;;;;24.90;92.50;;;;;;5105681;28;19907;-51
2021/06/07 07:10:41;;;;;;;;;;;24.90;92.60;;;;;;5105300;28;19923;-53
2021/06/07 07:13:07;;;;;;;;;;;24.90;92.80;;;;;;5105094;28;19908;-48
2021/06/07 07:15:34;;;;;;;;;;;24.90;92.80;;;;;;5105329;28;19907;-47
2021/06/07 07:18:01;;;;;;;;;;;24.90;92.60;;;;;;5105018;28;19951;-52
2021/06/07 07:20:27;;;;;;;;;;;24.90;92.50;;;;;;5105053;28;19900;-51
2021/06/07 07:22:54;;;;;;;;;;;24.90;92.50;;;;;;5105450;28;19915;-50
2021/06/07 07:25:20;;;;;;;;;;;24.90;92.30;;;;;;5105110;28;19907;-51
2021/06/07 07:27:46;;;;;;;;;;;24.90;92.20;;;;;;5105075;28;19954;-42
2021/06/07 07:30:14;;;;;;;;;;;24.90;92.10;;;;;;5105103;28;19927;-43
2021/06/07 07:32:41;;;;;;;;;;;25.00;92.00;;;;;;5104877;28;19916;-43
2021/06/07 07:35:08;;;;;;;;;;;24.90;91.90;;;;;;5104632;28;19900;-45
2021/06/07 07:37:35;;;;;;;;;;;24.90;91.90;;;;;;5105112;28;19916;-49
2021/06/07 07:40:03;;;;;;;;;;;25.00;92.00;;;;;;5104666;28;19985;-48
2021/06/07 07:42:29;;;;;;;;;;;24.90;91.90;;;;;;5104655;28;19908;-51
2021/06/07 07:44:56;;;;;;;;;;;24.90;92.00;;;;;;5105095;28;19954;-50
2021/06/07 07:47:22;;;;;;;;;;;24.90;91.90;;;;;;5104255;28;19949;-47
2021/06/07 07:49:48;;;;;;;;;;;24.90;91.90;;;;;;5104338;28;19907;-49
2021/06/07 07:52:14;;;;;;;;;;;24.90;91.90;;;;;;5107036;28;19950;-52
2021/06/07 07:54:40;;;;;;;;;;;25.00;91.80;;;;;;5108541;28;19900;-50
2021/06/07 07:57:07;;;;;;;;;;;25.00;91.80;;;;;;5108758;28;19908;-52
2021/06/07 07:59:33;;;;;;;;;;;25.00;91.90;;;;;;5108544;28;19904;-51
2021/06/07 08:02:00;;;;;;;;;;;25.00;91.80;;;;;;5108713;28;19923;-49
2021/06/07 08:04:27;;;;;;;;;;;25.00;92.00;;;;;;5108288;28;20129;-48
2021/06/07 08:06:53;;;;;;;;;;;25.00;92.00;;;;;;5108094;28;19971;-49
2021/06/07 08:09:19;;;;;;;;;;;25.00;92.00;;;;;;5108699;28;19942;-48
2021/06/07 08:11:45;;;;;;;;;;;24.90;92.00;;;;;;5108726;28;20123;-49
2021/06/07 08:14:11;;;;;;;;;;;25.00;92.10;;;;;;5108155;28;19967;-44
2021/06/07 08:16:38;;;;;;;;;;;24.90;92.20;;;;;;5108390;28;19900;-43
2021/06/07 08:19:04;;;;;;;;;;;24.90;92.30;;;;;;5107993;28;19916;-44
2021/06/07 08:21:30;;;;;;;;;;;24.90;92.40;;;;;;5107984;28;19900;-44
2021/06/07 08:23:56;;;;;;;;;;;24.90;92.50;;;;;;5108650;28;19912;-46
2021/06/07 08:26:22;;;;;;;;;;;24.90;92.40;;;;;;5108008;28;19906;-41
2021/06/07 08:28:49;;;;;;;;;;;24.90;92.50;;;;;;5107687;28;19907;-42
2021/06/07 08:31:15;;;;;;;;;;;24.90;92.40;;;;;;5107758;28;19907;-44
2021/06/07 08:33:41;;;;;;;;;;;24.90;92.30;;;;;;5107963;28;19962;-43
2021/06/07 08:36:07;;;;;;;;;;;24.90;92.30;;;;;;5106700;28;20181;-43
2021/06/07 08:38:34;;;;;;;;;;;24.90;92.40;;;;;;5108050;28;19912;-46
2021/06/07 08:41:00;;;;;;;;;;;24.90;92.40;;;;;;5107542;28;19900;-43
2021/06/07 08:43:27;;;;;;;;;;;24.90;92.50;;;;;;5107715;28;19908;-43
2021/06/07 08:45:53;;;;;;;;;;;24.90;92.40;;;;;;5107182;28;20176;-43
2021/06/07 08:48:21;;;;;;;;;;;24.90;92.30;;;;;;5107749;28;19978;-46
2021/06/07 08:50:48;;;;;;;;;;;24.90;92.30;;;;;;5107472;28;19969;-44
2021/06/07 08:53:14;;;;;;;;;;;24.90;92.30;;;;;;5107582;28;19908;-43
2021/06/07 08:55:40;;;;;;;;;;;24.90;92.20;;;;;;5107303;28;19907;-43
2021/06/07 08:58:06;;;;;;;;;;;24.90;92.10;;;;;;5107192;28;19908;-44
2021/06/07 09:00:36;;;;;;;;;;;24.90;92.20;;;;;;5107303;28;19927;-49
2021/06/07 09:03:04;;;;;;;;;;;24.90;92.10;;;;;;5106751;28;19949;-44
2021/06/07 09:05:30;;;;;;;;;;;24.90;92.10;;;;;;5107262;28;19906;-46
2021/06/07 09:08:01;;;;;;;;;;;24.90;92.20;;;;;;5107213;28;19935;-45
2021/06/07 09:10:28;;;;;;;;;;;24.90;92.10;;;;;;5107325;28;19945;-44
2021/06/07 09:12:56;;;;;;;;;;;24.90;92.10;;;;;;5107264;28;20137;-43
2021/06/07 09:15:26;;;;;;;;;;;24.90;92.00;;;;;;5106882;28;19904;-42
2021/06/07 09:17:52;;;;;;;;;;;24.90;92.00;;;;;;5107213;28;19912;-51
2021/06/07 09:20:20;;;;;;;;;;;24.90;91.90;;;;;;5107265;28;19908;-45
2021/06/07 09:22:53;;;;;;;;;;;25.00;91.90;;;;;;5107072;28;19908;-47
2021/06/07 09:25:23;;;;;;;;;;;25.00;91.90;;;;;;5106673;28;19899;-47
2021/06/07 09:28:03;;;;;;;;;;;25.00;91.80;;;;;;5106923;28;19914;-43
2021/06/07 09:30:40;;;;;;;;;;;25.00;91.80;;;;;;5106869;28;20180;-44
2021/06/07 09:33:15;;;;;;;;;;;25.00;91.70;;;;;;5106789;28;19928;-48
2021/06/07 09:35:42;;;;;;;;;;;24.90;91.70;;;;;;5106460;28;20264;-46
2021/06/07 09:38:09;;;;;;;;;;;24.90;91.70;;;;;;5106851;28;19903;-44
2021/06/07 09:40:35;;;;;;;;;;;25.00;91.80;;;;;;5106698;28;19903;-43
2021/06/07 09:43:02;;;;;;;;;;;25.00;91.90;;;;;;5106799;28;19908;-42
2021/06/07 09:45:48;;;;;;;;;;;24.90;91.80;;;;;;5106849;28;19908;-42
2021/06/07 09:48:17;;;;;;;;;;;24.90;92.00;;;;;;5106671;28;19903;-46
2021/06/07 09:51:02;;;;;;;;;;;24.90;92.20;;;;;;5106339;28;19904;-46
2021/06/07 09:53:38;;;;;;;;;;;24.90;92.30;;;;;;5106756;28;19904;-41
2021/06/07 09:56:04;;;;;;;;;;;24.90;92.30;;;;;;5106156;28;19936;-44
2021/06/07 09:58:31;;;;;;;;;;;24.90;92.30;;;;;;5106264;28;19908;-42
2021/06/07 10:00:58;;;;;;;;;;;24.90;92.40;;;;;;5106467;28;19904;-44
2021/06/07 10:03:25;;;;;;;;;;;24.90;92.40;;;;;;5106291;28;20185;-47
2021/06/07 10:05:53;;;;;;;;;;;24.90;92.40;;;;;;5106207;28;19975;-51
2021/06/07 10:08:24;;;;;;;;;;;24.90;92.30;;;;;;5105851;28;19943;-45
2021/06/07 10:10:51;;;;;;;;;;;24.90;92.30;;;;;;5106323;28;20025;-46
2021/06/07 10:13:17;;;;;;;;;;;24.90;92.40;;;;;;5105967;28;19904;-51
2021/06/07 10:15:45;;;;;;;;;;;24.90;92.60;;;;;;5105692;28;20085;-50
2021/06/07 10:18:19;;;;;;;;;;;24.90;92.50;;;;;;5105466;28;19949;-51
2021/06/07 10:20:52;;;;;;;;;;;24.90;92.90;;;;;;5106042;28;19899;-45
2021/06/07 10:23:27;;;;;;;;;;;24.90;92.70;;;;;;5106065;28;19946;-44
2021/06/07 10:25:57;;;;;;;;;;;24.90;92.80;;;;;;5105438;28;19946;-42
2021/06/07 10:28:24;;;;;;;;;;;24.90;92.90;;;;;;5105959;28;19907;-42
2021/06/07 10:30:50;;;;;;;;;;;24.90;93.00;;;;;;5105566;28;19907;-52
2021/06/07 10:33:24;;;;;;;;;;;24.90;93.00;;;;;;5105580;28;19908;-54
2021/06/07 10:35:51;;;;;;;;;;;24.90;93.10;;;;;;5105546;28;20198;-51
2021/06/07 10:38:27;;;;;;;;;;;24.90;93.30;;;;;;5105659;28;19944;-51
2021/06/07 10:41:13;;;;;;;;;;;24.80;93.50;;;;;;5105488;28;20185;-43
2021/06/07 10:43:43;;;;;;;;;;;24.80;93.60;;;;;;5105470;28;19908;-47
2021/06/07 10:46:29;;;;;;;;;;;24.80;93.70;;;;;;5105540;28;19939;-43
2021/06/07 10:48:56;;;;;;;;;;;24.80;93.70;;;;;;5105435;28;19943;-50
2021/06/07 10:51:24;;;;;;;;;;;24.80;93.90;;;;;;5105408;28;19911;-49
2021/06/07 10:53:53;;;;;;;;;;;24.80;93.90;;;;;;5105521;28;19915;-50
2021/06/07 10:56:25;;;;;;;;;;;24.80;94.00;;;;;;5105201;28;19900;-50
2021/06/07 10:58:55;;;;;;;;;;;24.80;93.90;;;;;;5105504;28;20161;-53
2021/06/07 11:01:22;;;;;;;;;;;24.80;93.80;;;;;;5105247;28;19907;-49
2021/06/07 11:03:59;;;;;;;;;;;24.80;94.00;;;;;;5105426;28;20127;-44
2021/06/07 11:06:25;;;;;;;;;;;24.80;93.80;;;;;;5105486;28;19899;-44
2021/06/07 11:09:02;;;;;;;;;;;24.80;93.80;;;;;;5104849;28;20249;-44
2021/06/07 11:11:42;;;;;;;;;;;24.80;93.80;;;;;;5104990;28;19907;-45
2021/06/07 11:14:08;;;;;;;;;;;24.80;93.90;;;;;;5104596;28;19951;-45
2021/06/07 11:16:38;;;;;;;;;;;24.80;94.00;;;;;;5104748;28;19900;-44
2021/06/07 11:19:08;;;;;;;;;;;24.80;94.00;;;;;;5104653;28;19962;-50
2021/06/07 11:21:41;;;;;;;;;;;24.80;94.30;;;;;;5104784;28;19928;-47
2021/06/07 11:24:26;;;;;;;;;;;24.80;94.10;;;;;;5104741;28;19970;-48
2021/06/07 11:26:52;;;;;;;;;;;24.80;94.20;;;;;;5103945;28;19900;-43
2021/06/07 11:29:19;;;;;;;;;;;24.80;94.10;;;;;;5104767;28;19963;-45
2021/06/07 11:31:48;;;;;;;;;;;24.80;94.00;;;;;;5104587;28;19900;-49
2021/06/07 11:34:17;;;;;;;;;;;24.80;93.90;;;;;;5104522;28;19900;-46
2021/06/07 11:36:49;;;;;;;;;;;24.80;93.90;;;;;;5104661;28;19922;-45
2021/06/07 11:39:20;;;;;;;;;;;24.80;93.90;;;;;;5104587;28;19975;-47
2021/06/07 11:41:59;;;;;;;;;;;24.80;93.80;;;;;;5104553;28;20302;-45
2021/06/07 11:44:46;;;;;;;;;;;24.80;93.90;;;;;;5104889;28;20002;-47
2021/06/07 11:47:13;;;;;;;;;;;24.90;93.80;;;;;;5104761;28;19908;-49
2021/06/07 11:49:58;;;;;;;;;;;24.90;93.80;;;;;;5104540;28;19928;-47
2021/06/07 11:52:48;;;;;;;;;;;24.90;93.70;;;;;;5104380;28;19939;-45
2021/06/07 11:55:27;;;;;;;;;;;24.90;93.60;;;;;;5104509;28;19904;-48
2021/06/07 11:58:05;;;;;;;;;;;24.90;93.60;;;;;;5104448;28;19947;-50
2021/06/07 12:00:40;;;;;;;;;;;24.90;93.50;;;;;;5104166;28;19904;-52
2021/06/07 12:03:07;;;;;;;;;;;24.80;93.50;;;;;;5104661;28;19908;-48
2021/06/07 12:05:34;;;;;;;;;;;24.80;93.40;;;;;;5104347;28;19907;-48
2021/06/07 12:08:07;;;;;;;;;;;24.90;93.40;;;;;;5104454;28;19908;-47
2021/06/07 12:10:34;;;;;;;;;;;24.90;93.30;;;;;;5104351;28;19900;-44
2021/06/07 12:13:26;;;;;;;;;;;24.90;93.30;;;;;;5104076;28;19908;-52
2021/06/07 12:15:56;;;;;;;;;;;24.90;93.20;;;;;;5101790;28;19900;-43
2021/06/07 12:18:29;;;;;;;;;;;24.90;93.10;;;;;;5103972;28;20202;-46
2021/06/07 12:21:03;;;;;;;;;;;24.90;93.00;;;;;;5104218;28;19907;-47
2021/06/07 12:23:37;;;;;;;;;;;24.90;92.90;;;;;;5104596;28;19908;-43
2021/06/07 12:29:22;;;;;;;;;;;24.90;92.90;;;;;;5104666;28;19916;-47
2021/06/07 12:32:14;;;;;;;;;;;24.90;92.80;;;;;;5103976;28;20184;-47
2021/06/07 12:34:59;;;;;;;;;;;25.00;92.80;;;;;;5101182;28;20176;-51
2021/06/07 12:37:26;;;;;;;;;;;25.10;92.90;;;;;;5103894;28;19915;-47
2021/06/07 12:40:06;;;;;;;;;;;25.10;92.90;;;;;;5107493;28;19911;-50
2021/06/07 12:42:33;;;;;;;;;;;25.10;92.70;;;;;;5107586;28;19915;-47
2021/06/07 12:45:10;;;;;;;;;;;25.20;92.70;;;;;;5107456;28;19900;-53
2021/06/07 12:47:37;;;;;;;;;;;25.20;92.70;;;;;;5107809;28;19947;-45
2021/06/07 12:50:07;;;;;;;;;;;25.30;92.50;;;;;;5107547;28;19900;-45
2021/06/07 12:52:33;;;;;;;;;;;25.30;92.80;;;;;;5107455;28;19945;-46
2021/06/07 12:55:00;;;;;;;;;;;25.40;92.40;;;;;;5107418;28;19932;-47
2021/06/07 12:57:30;;;;;;;;;;;25.40;92.40;;;;;;5107111;28;19935;-45
2021/06/07 12:59:57;;;;;;;;;;;25.50;92.40;;;;;;5107089;28;20097;-42
2021/06/07 13:02:33;;;;;;;;;;;25.50;92.30;;;;;;5107310;28;19930;-52
2021/06/07 13:05:00;;;;;;;;;;;25.60;92.40;;;;;;5107314;28;19900;-47
2021/06/07 13:07:26;;;;;;;;;;;25.60;92.30;;;;;;5106596;28;19908;-43
2021/06/07 13:09:54;;;;;;;;;;;25.60;92.40;;;;;;5106619;28;20180;-46
2021/06/07 13:12:27;;;;;;;;;;;25.70;92.40;;;;;;5107142;28;19971;-50
2021/06/07 13:14:54;;;;;;;;;;;25.70;92.30;;;;;;5106934;28;19906;-47
2021/06/07 13:17:21;;;;;;;;;;;25.70;92.30;;;;;;5106754;28;19907;-49
2021/06/07 13:19:51;;;;;;;;;;;25.70;92.20;;;;;;5106900;28;19947;-47
2021/06/07 13:22:18;;;;;;;;;;;25.80;92.20;;;;;;5107026;28;19911;-49
2021/06/07 13:24:46;;;;;;;;;;;25.80;92.20;;;;;;5106747;28;19908;-47
2021/06/07 13:27:21;;;;;;;;;;;25.80;92.20;;;;;;5106728;28;19904;-44
2021/06/07 13:29:48;;;;;;;;;;;25.80;92.20;;;;;;5106970;28;20092;-47
2021/06/07 13:32:28;;;;;;;;;;;25.90;92.10;;;;;;5106571;28;19904;-48
2021/06/07 13:34:56;;;;;;;;;;;25.90;91.90;;;;;;5106657;28;19910;-50
2021/06/07 13:37:29;;;;;;;;;;;25.90;91.80;;;;;;5105331;28;20199;-48
2021/06/07 13:40:17;;;;;;;;;;;25.90;91.90;;;;;;5106562;28;19907;-49
2021/06/07 13:42:47;;;;;;;;;;;26.00;91.90;;;;;;5106458;28;20191;-49
2021/06/07 13:45:15;;;;;;;;;;;26.00;91.90;;;;;;5106309;28;19904;-47
2021/06/07 13:47:48;;;;;;;;;;;26.10;91.90;;;;;;5106495;28;19904;-51
2021/06/07 13:50:16;;;;;;;;;;;26.10;92.20;;;;;;5106063;28;19907;-51
2021/06/07 13:52:44;;;;;;;;;;;26.20;92.30;;;;;;5106461;28;19942;-48
2021/06/07 13:55:19;;;;;;;;;;;26.20;92.00;;;;;;5106120;28;19904;-44
2021/06/07 13:57:55;;;;;;;;;;;26.30;92.10;;;;;;5106416;28;20231;-50
2021/06/07 14:00:22;;;;;;;;;;;26.40;92.00;;;;;;5105834;28;19908;-48
2021/06/07 14:02:48;;;;;;;;;;;26.40;92.20;;;;;;5106425;28;19955;-49
2021/06/07 14:05:17;;;;;;;;;;;26.50;92.10;;;;;;5106179;28;19903;-49
2021/06/07 14:07:44;;;;;;;;;;;26.50;91.80;;;;;;5105953;28;19910;-48
2021/06/07 14:10:10;;;;;;;;;;;26.60;91.70;;;;;;5105999;28;19953;-42
2021/06/07 14:12:36;;;;;;;;;;;26.60;91.70;;;;;;5106005;28;19939;-46
2021/06/07 14:15:03;;;;;;;;;;;26.70;91.60;;;;;;5105883;28;20189;-45
2021/06/07 14:17:29;;;;;;;;;;;26.70;91.60;;;;;;5105466;28;19904;-43
2021/06/07 14:19:55;;;;;;;;;;;26.70;91.40;;;;;;5104992;28;19912;-42
2021/06/07 14:24:47;;;;;;;;;;;26.80;91.50;;;;;;5105618;28;19923;-46
2021/06/07 14:27:13;;;;;;;;;;;26.80;91.60;;;;;;5105550;28;20081;-44
2021/06/07 14:29:42;;;;;;;;;;;26.80;91.60;;;;;;5105553;28;19900;-50